createdAt,value
2023-02-14T00:02:13.820Z,4.05
2023-02-14T00:04:46.022Z,4.04
2023-02-14T00:07:14.849Z,3.89
2023-02-14T00:09:43.191Z,3.83
2023-02-14T00:12:11.546Z,3.86
2023-02-14T00:14:56.711Z,3.84
2023-02-14T00:17:25.969Z,3.76
2023-02-14T00:19:58.445Z,3.72
2023-02-14T00:22:26.554Z,3.61
2023-02-14T00:24:56.405Z,3.59
2023-02-14T00:27:26.179Z,3.59
2023-02-14T00:29:55.206Z,3.50
2023-02-14T00:32:24.945Z,3.58
2023-02-14T00:34:53.588Z,3.48
2023-02-14T00:37:23.951Z,3.76
2023-02-14T00:39:52.924Z,3.68
2023-02-14T00:42:21.615Z,3.73
2023-02-14T00:44:50.251Z,3.76
2023-02-14T00:47:18.331Z,3.71
2023-02-14T00:49:46.760Z,3.85
2023-02-14T00:52:16.229Z,3.80
2023-02-14T00:54:48.102Z,3.83
2023-02-14T00:57:17.314Z,3.62
2023-02-14T00:59:47.164Z,3.60
2023-02-14T01:02:15.642Z,3.47
2023-02-14T01:04:45.183Z,3.54
2023-02-14T01:07:15.915Z,3.63
2023-02-14T01:09:44.238Z,3.64
2023-02-14T01:12:13.927Z,3.44
2023-02-14T01:14:42.304Z,3.44
2023-02-14T01:17:10.569Z,3.53
2023-02-14T01:19:42.564Z,3.44
2023-02-14T01:22:10.652Z,3.27
2023-02-14T01:24:39.775Z,3.23
2023-02-14T01:27:07.952Z,3.26
2023-02-14T01:29:38.139Z,3.24
2023-02-14T01:32:06.908Z,3.23
2023-02-14T01:34:37.899Z,3.33
2023-02-14T01:37:06.206Z,3.40
2023-02-14T01:39:34.645Z,3.39
2023-02-14T01:42:03.352Z,3.21
2023-02-14T01:45:07.366Z,3.28
2023-02-14T01:47:40.302Z,3.20
2023-02-14T01:50:16.220Z,3.13
2023-02-14T01:52:48.656Z,2.84
2023-02-14T01:55:19.982Z,2.85
2023-02-14T01:57:53.429Z,2.95
2023-02-14T02:00:42.725Z,3.07
2023-02-14T02:03:12.318Z,3.08
2023-02-14T02:05:46.595Z,3.12
2023-02-14T02:08:16.092Z,3.15
2023-02-14T02:10:44.273Z,3.14
2023-02-14T02:13:18.318Z,3.08
2023-02-14T02:15:57.009Z,3.01
2023-02-14T02:18:32.200Z,2.75
2023-02-14T02:21:31.678Z,2.77
2023-02-14T02:24:16.492Z,2.74
2023-02-14T02:27:20.828Z,2.80
2023-02-14T02:30:36.801Z,2.63
2023-02-14T02:33:46.275Z,2.77
2023-02-14T02:36:29.907Z,2.56
2023-02-14T02:39:12.388Z,2.62
2023-02-14T02:41:54.312Z,2.44
2023-02-14T02:44:29.148Z,2.59
2023-02-14T02:47:07.055Z,2.46
2023-02-14T02:50:02.535Z,2.45
2023-02-14T02:53:01.293Z,2.35
2023-02-14T02:55:52.280Z,2.41
2023-02-14T02:58:22.938Z,2.43
2023-02-14T03:00:54.470Z,2.44
2023-02-14T03:03:42.875Z,2.55
2023-02-14T03:06:11.536Z,2.70
2023-02-14T03:08:41.213Z,2.59
2023-02-14T03:11:10.973Z,2.53
2023-02-14T03:14:01.084Z,2.51
2023-02-14T03:16:35.965Z,2.67
2023-02-14T03:19:52.338Z,2.66
2023-02-14T03:22:30.520Z,2.61
2023-02-14T03:25:11.106Z,2.50
2023-02-14T03:27:46.786Z,2.37
2023-02-14T03:30:24.256Z,2.28
2023-02-14T03:33:01.143Z,2.08
2023-02-14T03:35:34.438Z,2.14
2023-02-14T03:38:08.835Z,2.12
2023-02-14T03:40:43.985Z,2.10
2023-02-14T03:43:16.477Z,1.96
2023-02-14T03:45:51.694Z,1.97
2023-02-14T03:48:24.257Z,1.91
2023-02-14T03:50:55.034Z,1.76
2023-02-14T03:53:27.200Z,1.85
2023-02-14T03:56:06.356Z,1.83
2023-02-14T03:58:39.701Z,1.84
2023-02-14T04:01:15.221Z,2.01
2023-02-14T04:03:45.523Z,2.00
2023-02-14T04:06:13.749Z,1.90
2023-02-14T04:08:41.906Z,1.88
2023-02-14T04:11:11.732Z,1.92
2023-02-14T04:13:41.795Z,1.82
2023-02-14T04:16:10.342Z,1.72
2023-02-14T04:18:55.730Z,1.53
2023-02-14T04:21:23.856Z,1.48
2023-02-14T04:23:52.199Z,1.62
2023-02-14T04:26:21.887Z,1.71
2023-02-14T04:28:49.986Z,1.62
2023-02-14T04:31:18.205Z,1.51
2023-02-14T04:33:48.346Z,1.48
2023-02-14T04:36:16.710Z,1.54
2023-02-14T04:38:46.600Z,1.66
2023-02-14T04:41:15.139Z,1.70
2023-02-14T04:43:45.311Z,1.76
2023-02-14T04:46:13.575Z,1.84
2023-02-14T04:48:41.730Z,1.73
2023-02-14T04:51:09.869Z,1.82
2023-02-14T04:53:40.517Z,1.77
2023-02-14T04:56:09.422Z,1.70
2023-02-14T04:58:37.812Z,1.67
2023-02-14T05:01:08.785Z,1.72
2023-02-14T05:03:37.214Z,1.54
2023-02-14T05:06:05.584Z,1.30
2023-02-14T05:08:34.313Z,1.11
2023-02-14T05:11:02.980Z,1.24
2023-02-14T05:13:32.154Z,1.35
2023-02-14T05:16:00.476Z,1.48
2023-02-14T05:18:32.451Z,1.42
2023-02-14T05:21:01.001Z,1.46
2023-02-14T05:23:29.370Z,1.56
2023-02-14T05:25:57.369Z,1.63
2023-02-14T05:28:25.762Z,1.58
2023-02-14T05:30:54.406Z,1.47
2023-02-14T05:33:22.615Z,1.38
2023-02-14T05:35:54.864Z,1.43
2023-02-14T05:38:23.160Z,1.43
2023-02-14T05:40:51.291Z,1.71
2023-02-14T05:43:19.303Z,1.47
2023-02-14T05:45:47.788Z,1.31
2023-02-14T05:48:16.336Z,1.46
2023-02-14T05:50:45.470Z,1.33
2023-02-14T05:53:16.048Z,1.32
2023-02-14T05:55:44.366Z,1.39
2023-02-14T05:58:13.568Z,1.36
2023-02-14T06:00:42.331Z,1.34
2023-02-14T06:03:10.786Z,1.09
2023-02-14T06:05:39.325Z,1.09
2023-02-14T06:08:07.694Z,1.10
2023-02-14T06:10:37.460Z,1.10
2023-02-14T06:13:08.991Z,1.24
2023-02-14T06:15:37.710Z,1.23
2023-02-14T06:18:06.679Z,1.53
2023-02-14T06:20:35.094Z,1.63
2023-02-14T06:23:03.633Z,1.67
2023-02-14T06:25:33.212Z,1.70
2023-02-14T06:28:03.363Z,1.81
2023-02-14T06:30:31.625Z,1.93
2023-02-14T06:33:00.017Z,2.01
2023-02-14T06:35:28.215Z,1.99
2023-02-14T06:37:56.564Z,1.53
2023-02-14T06:40:25.369Z,1.56
2023-02-14T06:42:53.407Z,1.73
2023-02-14T06:45:24.390Z,1.73
2023-02-14T06:47:52.601Z,1.86
2023-02-14T06:50:21.052Z,1.99
2023-02-14T06:52:49.134Z,2.05
2023-02-14T06:55:17.621Z,1.95
2023-02-14T06:57:46.403Z,1.84
2023-02-14T07:00:16.968Z,2.00
2023-02-14T07:02:47.206Z,1.99
2023-02-14T07:05:19.193Z,1.84
2023-02-14T07:07:47.654Z,1.90
2023-02-14T07:10:16.712Z,1.94
2023-02-14T07:12:46.585Z,1.87
2023-02-14T07:15:15.324Z,1.76
2023-02-14T07:17:44.413Z,1.67
2023-02-14T07:20:15.193Z,1.77
2023-02-14T07:22:43.875Z,1.84
2023-02-14T07:25:12.466Z,1.59
2023-02-14T07:27:41.487Z,1.62
2023-02-14T07:30:11.858Z,1.37
2023-02-14T07:32:43.163Z,1.54
2023-02-14T07:35:15.369Z,1.58
2023-02-14T07:37:44.083Z,1.59
2023-02-14T07:40:15.285Z,1.43
2023-02-14T07:42:44.135Z,1.77
2023-02-14T07:45:22.052Z,1.86
2023-02-14T07:47:50.966Z,1.75
2023-02-14T07:50:21.519Z,1.73
2023-02-14T07:52:50.767Z,1.66
2023-02-14T07:55:22.866Z,1.74
2023-02-14T07:57:53.420Z,1.66
2023-02-14T08:00:23.020Z,1.78
2023-02-14T08:02:51.093Z,1.84
2023-02-14T08:05:20.687Z,1.89
2023-02-14T08:07:48.882Z,1.89
2023-02-14T08:10:17.235Z,1.92
2023-02-14T08:13:00.796Z,1.87
2023-02-14T08:15:48.408Z,1.99
2023-02-14T08:18:17.891Z,2.13
2023-02-14T08:20:53.102Z,2.19
2023-02-14T08:23:22.514Z,2.05
2023-02-14T08:25:52.208Z,1.77
2023-02-14T08:28:23.384Z,2.09
2023-02-14T08:30:52.535Z,2.12
2023-02-14T08:33:20.779Z,2.05
2023-02-14T08:35:52.316Z,2.18
2023-02-14T08:38:21.020Z,2.04
2023-02-14T08:40:49.598Z,2.06
2023-02-14T08:43:17.868Z,2.21
2023-02-14T08:45:46.440Z,2.29
2023-02-14T08:48:16.026Z,2.37
2023-02-14T08:50:44.179Z,2.18
2023-02-14T08:53:15.213Z,2.38
2023-02-14T08:55:43.744Z,2.44
2023-02-14T08:58:12.275Z,2.50
2023-02-14T09:00:40.805Z,2.47
2023-02-14T09:03:10.788Z,2.20
2023-02-14T09:05:39.255Z,2.45
2023-02-14T09:08:08.054Z,2.48
2023-02-14T09:10:38.035Z,2.49
2023-02-14T09:13:07.622Z,2.31
2023-02-14T09:15:36.216Z,2.52
2023-02-14T09:18:05.204Z,2.50
2023-02-14T09:20:33.866Z,2.45
2023-02-14T09:23:02.293Z,2.46
2023-02-14T09:25:30.830Z,2.52
2023-02-14T09:28:00.596Z,2.56
2023-02-14T09:30:29.229Z,2.43
2023-02-14T09:32:57.579Z,2.48
2023-02-14T09:35:25.753Z,2.41
2023-02-14T09:37:53.941Z,2.48
2023-02-14T09:40:22.330Z,2.56
2023-02-14T09:43:00.121Z,2.51
2023-02-14T09:45:33.687Z,2.37
2023-02-14T09:48:10.217Z,2.47
2023-02-14T09:50:43.469Z,2.32
2023-02-14T09:53:21.644Z,2.30
2023-02-14T09:55:57.377Z,2.32
2023-02-14T09:58:33.624Z,2.27
2023-02-14T10:01:12.104Z,2.36
2023-02-14T10:04:03.290Z,2.42
2023-02-14T10:06:45.019Z,2.40
2023-02-14T10:09:24.665Z,2.36
2023-02-14T10:11:53.366Z,2.35
2023-02-14T10:14:25.883Z,2.48
2023-02-14T10:17:01.092Z,2.57
2023-02-14T10:19:36.477Z,2.46
2023-02-14T10:22:09.486Z,2.45
2023-02-14T10:24:41.922Z,2.39
2023-02-14T10:27:19.672Z,2.45
2023-02-14T10:29:47.845Z,2.23
2023-02-14T10:32:22.363Z,2.49
2023-02-14T10:34:52.162Z,2.33
2023-02-14T10:37:34.246Z,2.50
2023-02-14T10:40:20.199Z,2.52
2023-02-14T10:42:54.711Z,2.49
2023-02-14T10:45:30.465Z,2.58
2023-02-14T10:48:07.110Z,2.59
2023-02-14T10:50:41.582Z,2.56
2023-02-14T10:53:19.311Z,2.50
2023-02-14T10:55:55.056Z,2.50
2023-02-14T10:58:25.850Z,2.59
2023-02-14T11:01:00.339Z,2.78
2023-02-14T11:03:31.860Z,2.55
2023-02-14T11:06:00.777Z,2.16
2023-02-14T11:08:33.043Z,2.49
2023-02-14T11:11:09.528Z,2.35
2023-02-14T11:13:40.175Z,2.40
2023-02-14T11:16:11.830Z,2.25
2023-02-14T11:18:43.121Z,2.45
2023-02-14T11:21:12.792Z,2.54
2023-02-14T11:23:43.001Z,2.72
2023-02-14T11:26:22.107Z,2.67
2023-02-14T11:28:54.293Z,2.79
2023-02-14T11:31:34.152Z,2.81
2023-02-14T11:34:07.025Z,2.90
2023-02-14T11:36:45.288Z,2.84
2023-02-14T11:39:27.013Z,3.05
2023-02-14T11:41:57.717Z,3.10
2023-02-14T11:44:28.068Z,3.02
2023-02-14T11:47:17.082Z,2.96
2023-02-14T11:50:02.713Z,2.95
2023-02-14T11:52:41.051Z,2.85
2023-02-14T11:55:26.419Z,2.90
2023-02-14T11:57:57.265Z,2.50
2023-02-14T12:00:31.322Z,2.74
2023-02-14T12:03:01.475Z,2.75
2023-02-14T12:05:35.458Z,2.79
2023-02-14T12:08:06.475Z,2.85
2023-02-14T12:10:37.283Z,2.73
2023-02-14T12:13:26.110Z,2.55
2023-02-14T12:15:57.650Z,2.41
2023-02-14T12:18:53.110Z,2.40
2023-02-14T12:21:48.437Z,2.75
2023-02-14T12:24:28.248Z,2.83
2023-02-14T12:27:06.907Z,3.05
2023-02-14T12:29:40.724Z,3.11
2023-02-14T12:32:17.676Z,3.37
2023-02-14T12:34:45.837Z,3.34
2023-02-14T12:37:21.959Z,3.11
2023-02-14T12:40:07.087Z,3.19
2023-02-14T12:42:49.734Z,3.33
2023-02-14T12:45:26.426Z,3.53
2023-02-14T12:48:06.297Z,3.61
2023-02-14T12:50:45.652Z,3.44
2023-02-14T12:53:48.948Z,3.62
2023-02-14T12:56:35.259Z,3.59
2023-02-14T12:59:17.468Z,3.72
2023-02-14T13:02:28.315Z,3.50
2023-02-14T13:05:01.158Z,3.52
2023-02-14T13:07:53.015Z,3.71
2023-02-14T13:10:30.200Z,3.65
2023-02-14T13:16:03.135Z,3.78
2023-02-14T13:18:42.911Z,3.75
2023-02-14T13:21:13.617Z,3.84
2023-02-14T13:23:45.195Z,4.05
2023-02-14T13:26:17.556Z,4.01
2023-02-14T13:28:52.337Z,4.13
2023-02-14T13:31:23.852Z,4.06
2023-02-14T13:33:55.617Z,4.15
2023-02-14T13:36:25.069Z,4.01
2023-02-14T13:41:25.063Z,4.19
2023-02-14T13:43:57.876Z,4.14
2023-02-14T13:46:51.230Z,4.16
2023-02-14T13:49:29.611Z,3.71
2023-02-14T13:51:59.866Z,3.98
2023-02-14T13:54:37.458Z,3.26
2023-02-14T13:57:31.850Z,3.45
2023-02-14T14:00:47.622Z,3.29
2023-02-14T14:03:54.545Z,3.35
2023-02-14T14:06:23.904Z,3.54
2023-02-14T14:08:56.323Z,3.83
2023-02-14T14:11:58.598Z,3.96
2023-02-14T14:14:40.077Z,3.81
2023-02-14T14:17:26.227Z,3.73
2023-02-14T14:19:58.079Z,3.81
2023-02-14T14:22:27.090Z,4.12
2023-02-14T14:25:01.761Z,4.19
2023-02-14T14:27:35.169Z,4.23
2023-02-14T14:30:05.714Z,4.41
2023-02-14T14:32:37.486Z,4.73
2023-02-14T14:35:20.605Z,4.70
2023-02-14T14:37:52.519Z,4.99
2023-02-14T14:40:26.417Z,4.87
2023-02-14T14:42:55.941Z,5.28
2023-02-14T14:45:27.525Z,5.35
2023-02-14T14:48:00.453Z,5.37
2023-02-14T14:50:33.201Z,5.14
2023-02-14T14:53:04.072Z,5.42
2023-02-14T14:55:35.549Z,5.51
2023-02-14T14:58:05.221Z,5.66
2023-02-14T15:00:35.842Z,6.00
2023-02-14T15:03:07.971Z,6.54
2023-02-14T15:05:40.675Z,7.20
2023-02-14T15:08:23.688Z,7.69
2023-02-14T15:10:56.290Z,7.84
2023-02-14T15:13:49.369Z,7.34
2023-02-14T15:16:24.884Z,7.09
2023-02-14T15:18:56.464Z,7.07
2023-02-14T15:21:26.959Z,6.93
2023-02-14T15:23:55.828Z,6.66
2023-02-14T15:26:28.800Z,6.49
2023-02-14T15:29:00.195Z,6.26
2023-02-14T15:31:37.354Z,5.85
2023-02-14T15:34:06.733Z,5.65
2023-02-14T15:36:37.527Z,5.43
2023-02-14T15:39:10.152Z,5.20
2023-02-14T15:41:43.632Z,5.36
2023-02-14T15:44:20.641Z,5.08
2023-02-14T15:46:49.885Z,4.95
2023-02-14T15:49:22.888Z,4.57
2023-02-14T15:51:53.426Z,4.52
2023-02-14T15:54:27.712Z,4.58
2023-02-14T15:56:56.892Z,4.51
2023-02-14T15:59:29.848Z,4.43
2023-02-14T16:02:01.472Z,4.45
2023-02-14T16:04:32.952Z,4.32
2023-02-14T16:07:25.597Z,4.23
2023-02-14T16:10:15.912Z,4.05
2023-02-14T16:12:44.665Z,3.99
2023-02-14T16:15:20.637Z,4.07
2023-02-14T16:17:49.569Z,4.06
2023-02-14T16:20:29.396Z,4.01
2023-02-14T16:23:20.845Z,3.89
2023-02-14T16:25:49.959Z,3.93
2023-02-14T16:28:18.619Z,3.96
2023-02-14T16:30:48.544Z,3.80
2023-02-14T16:33:21.709Z,3.81
2023-02-14T16:35:51.526Z,3.78
2023-02-14T16:38:22.925Z,3.77
2023-02-14T16:40:54.576Z,3.79
2023-02-14T16:43:23.807Z,3.68
2023-02-14T16:45:52.311Z,3.53
2023-02-14T16:48:20.556Z,3.61
2023-02-14T16:50:49.018Z,3.58
2023-02-14T16:53:36.650Z,3.59
2023-02-14T16:56:04.842Z,3.51
2023-02-14T16:58:36.092Z,3.49
2023-02-14T17:01:05.566Z,3.49
2023-02-14T17:03:35.678Z,3.49
2023-02-14T17:06:06.453Z,3.51
2023-02-14T17:08:39.654Z,3.55
2023-02-14T17:11:08.584Z,3.50
2023-02-14T17:13:41.141Z,3.70
2023-02-14T17:16:13.129Z,3.75
2023-02-14T17:18:47.924Z,3.67
2023-02-14T17:21:18.268Z,3.63
2023-02-14T17:23:48.579Z,3.48
2023-02-14T17:26:18.589Z,3.50
2023-02-14T17:28:47.848Z,3.41
2023-02-14T17:31:17.404Z,3.43
2023-02-14T17:33:46.104Z,3.38
2023-02-14T17:36:15.912Z,3.27
2023-02-14T17:38:45.389Z,3.18
2023-02-14T17:41:22.025Z,3.30
2023-02-14T17:43:52.054Z,3.24
2023-02-14T17:46:20.884Z,3.33
2023-02-14T17:48:50.444Z,3.25
2023-02-14T17:51:22.685Z,3.30
2023-02-14T17:53:51.665Z,3.39
2023-02-14T17:56:23.833Z,3.42
2023-02-14T17:58:55.426Z,3.35
2023-02-14T18:01:26.103Z,3.29
2023-02-14T18:03:55.485Z,3.29
2023-02-14T18:06:24.078Z,3.24
2023-02-14T18:08:53.809Z,3.25
2023-02-14T18:11:26.412Z,3.29
2023-02-14T18:13:55.378Z,3.30
2023-02-14T18:16:24.958Z,3.38
2023-02-14T18:18:55.059Z,3.43
2023-02-14T18:21:24.761Z,3.28
2023-02-14T18:23:52.923Z,3.26
2023-02-14T18:26:21.471Z,3.28
2023-02-14T18:28:51.377Z,3.33
2023-02-14T18:31:20.180Z,3.22
2023-02-14T18:33:49.580Z,3.24
2023-02-14T18:36:21.664Z,3.20
2023-02-14T18:38:50.960Z,3.35
2023-02-14T18:41:21.086Z,3.25
2023-02-14T18:43:51.226Z,3.14
2023-02-14T18:46:21.468Z,3.14
2023-02-14T18:48:50.157Z,3.06
2023-02-14T18:51:20.656Z,2.89
2023-02-14T18:53:52.364Z,2.82
2023-02-14T18:56:22.398Z,2.77
2023-02-14T18:58:57.607Z,2.97
2023-02-14T19:01:29.328Z,2.88
2023-02-14T19:03:59.762Z,2.87
2023-02-14T19:06:29.671Z,2.85
2023-02-14T19:08:59.240Z,2.62
2023-02-14T19:11:31.651Z,2.66
2023-02-14T19:14:03.488Z,2.64
2023-02-14T19:16:34.042Z,2.67
2023-02-14T19:19:03.272Z,2.33
2023-02-14T19:21:33.764Z,2.49
2023-02-14T19:24:03.807Z,2.55
2023-02-14T19:26:37.465Z,2.34
2023-02-14T19:29:11.721Z,2.32
2023-02-14T19:31:43.038Z,2.28
2023-02-14T19:34:17.640Z,2.45
2023-02-14T19:36:46.407Z,2.43
2023-02-14T19:39:15.289Z,2.32
2023-02-14T19:41:43.886Z,2.37
2023-02-14T19:44:15.724Z,2.19
2023-02-14T19:46:46.590Z,2.13
2023-02-14T19:49:16.646Z,2.29
2023-02-14T19:51:46.127Z,2.20
2023-02-14T19:54:16.054Z,2.30
2023-02-14T19:56:46.621Z,2.24
2023-02-14T19:59:20.378Z,2.12
2023-02-14T20:01:51.607Z,2.06
2023-02-14T20:04:23.977Z,2.14
2023-02-14T20:06:53.270Z,2.34
2023-02-14T20:09:23.174Z,2.29
2023-02-14T20:11:54.509Z,2.23
2023-02-14T20:14:26.782Z,2.23
2023-02-14T20:16:56.913Z,2.22
2023-02-14T20:19:29.506Z,2.21
2023-02-14T20:21:57.691Z,2.14
2023-02-14T20:24:28.647Z,2.23
2023-02-14T20:26:57.840Z,2.29
2023-02-14T20:29:28.097Z,2.24
2023-02-14T20:32:00.236Z,2.22
2023-02-14T20:34:30.312Z,2.23
2023-02-14T20:36:59.357Z,2.18
2023-02-14T20:39:31.847Z,2.21
2023-02-14T20:42:01.145Z,2.22
2023-02-14T20:44:31.214Z,2.08
2023-02-14T20:47:00.264Z,2.15
2023-02-14T20:49:30.845Z,2.27
2023-02-14T20:51:59.785Z,2.18
2023-02-14T20:54:30.430Z,2.28
2023-02-14T20:57:02.140Z,2.34
2023-02-14T20:59:37.842Z,2.23
2023-02-14T21:02:07.685Z,2.21
2023-02-14T21:04:35.995Z,2.21
2023-02-14T21:07:08.911Z,2.26
2023-02-14T21:09:37.968Z,2.41
2023-02-14T21:12:07.219Z,2.39
2023-02-14T21:14:36.899Z,2.34
2023-02-14T21:17:05.872Z,2.33
2023-02-14T21:19:35.365Z,2.42
2023-02-14T21:22:03.784Z,2.42
2023-02-14T21:24:32.530Z,2.44
2023-02-14T21:27:02.020Z,2.30
2023-02-14T21:29:30.833Z,2.33
2023-02-14T21:32:03.434Z,2.41
2023-02-14T21:34:32.287Z,2.38
2023-02-14T21:37:00.729Z,2.42
2023-02-14T21:39:31.126Z,2.52
2023-02-14T21:41:59.888Z,2.50
2023-02-14T21:44:45.290Z,2.64
2023-02-14T21:47:15.431Z,2.32
2023-02-14T21:50:01.023Z,2.45
2023-02-14T21:52:30.442Z,2.26
2023-02-14T21:54:58.939Z,2.36
2023-02-14T21:57:30.852Z,2.48
2023-02-14T21:59:59.033Z,2.47
2023-02-14T22:02:32.744Z,2.26
2023-02-14T22:05:01.164Z,2.22
2023-02-14T22:07:30.357Z,2.23
2023-02-14T22:10:01.772Z,2.24
2023-02-14T22:12:30.759Z,2.08
2023-02-14T22:15:02.183Z,1.87
2023-02-14T22:17:34.213Z,1.81
2023-02-14T22:20:02.481Z,1.77
2023-02-14T22:22:30.799Z,1.64
2023-02-14T22:24:59.229Z,1.58
2023-02-14T22:27:27.479Z,1.40
2023-02-14T22:29:55.732Z,1.29
2023-02-14T22:32:26.294Z,1.56
2023-02-14T22:34:56.538Z,1.42
2023-02-14T22:37:24.868Z,1.47
2023-02-14T22:39:52.935Z,1.60
2023-02-14T22:42:21.292Z,1.62
2023-02-14T22:44:50.146Z,1.68
2023-02-14T22:47:18.458Z,1.66
2023-02-14T22:49:46.957Z,1.80
2023-02-14T22:52:16.716Z,1.79
2023-02-14T22:54:45.217Z,1.74
2023-02-14T22:57:14.101Z,1.90
2023-02-14T22:59:42.343Z,1.80
2023-02-14T23:02:11.372Z,1.65
2023-02-14T23:04:39.691Z,1.53
2023-02-14T23:07:07.848Z,1.48
2023-02-14T23:09:37.580Z,1.69
2023-02-14T23:12:27.729Z,1.64
2023-02-14T23:15:12.688Z,1.53
2023-02-14T23:17:58.853Z,1.70
2023-02-14T23:20:45.534Z,1.44
2023-02-14T23:23:13.886Z,1.68
2023-02-14T23:25:44.674Z,1.59
2023-02-14T23:28:12.985Z,1.58
2023-02-14T23:30:41.220Z,1.52
2023-02-14T23:33:09.736Z,1.62
2023-02-14T23:35:38.656Z,1.57
2023-02-14T23:38:07.237Z,1.61
2023-02-14T23:40:56.008Z,1.56
2023-02-14T23:43:25.783Z,1.51
2023-02-14T23:45:54.204Z,1.66
2023-02-14T23:48:22.514Z,1.69
2023-02-14T23:50:50.945Z,1.66
2023-02-14T23:53:19.395Z,1.78
2023-02-14T23:55:48.008Z,1.66
2023-02-14T23:58:16.193Z,1.71
